Time;durP1;ratioP1;P1;durP2;ratioP2;P2;SDS_P1;SDS_P2;PMS_P1;PMS_P2;Temp;Humidity;BMP_temperature;BMP_pressure;BME280_temperature;BME280_humidity;BME280_pressure;Samples;Min_cycle;Max_cycle;Signal;HPM_P1;HPM_P2
2021/06/21 00:00:44;;;;;;;9.47;8.70;;;;;;;;;;4995194;28;20217;-92
2021/06/21 00:03:10;;;;;;;8.77;8.17;;;;;;;;;;4996794;28;20482;-92
2021/06/21 00:05:37;;;;;;;8.40;8.00;;;20.80;91.50;;;;;;4995493;28;20432;-93
2021/06/21 00:08:02;;;;;;;8.93;8.23;;;20.60;93.30;;;;;;4978255;28;20632;-91
2021/06/21 00:10:29;;;;;;;10.40;9.77;;;;;;;;;;4997022;28;20483;-90
2021/06/21 00:12:55;;;;;;;9.93;9.33;;;;;;;;;;4995261;28;20177;-91
2021/06/21 00:15:25;;;;;;;11.10;10.47;;;20.50;97.50;;;;;;4998714;28;20781;-92
2021/06/21 00:17:51;;;;;;;12.57;11.47;;;20.50;97.40;;;;;;4997176;28;20411;-92
2021/06/21 00:20:18;;;;;;;12.73;11.57;;;20.40;98.20;;;;;;4995905;28;20861;-91
2021/06/21 00:22:46;;;;;;;15.80;14.27;;;20.60;99.90;;;;;;4997585;28;20291;-92
2021/06/21 00:25:13;;;;;;;12.53;11.73;;;20.30;98.40;;;;;;4996541;28;20419;-92
2021/06/21 00:27:40;;;;;;;14.87;13.67;;;;;;;;;;4998231;28;20472;-92
2021/06/21 00:30:11;;;;;;;14.10;13.20;;;19.90;96.60;;;;;;4995408;28;20420;-91
2021/06/21 00:32:39;;;;;;;12.83;12.00;;;20.30;99.90;;;;;;4995894;28;20404;-91
2021/06/21 00:35:06;;;;;;;14.50;13.50;;;20.20;99.90;;;;;;4995727;28;20420;-91
2021/06/21 00:37:34;;;;;;;16.23;14.93;;;20.20;98.90;;;;;;4999338;28;20396;-91
2021/06/21 00:40:01;;;;;;;15.70;14.43;;;;;;;;;;4997942;28;20555;-90
2021/06/21 00:42:27;;;;;;;17.37;15.97;;;20.20;99.40;;;;;;4997826;28;20845;-91
2021/06/21 00:44:52;;;;;;;16.80;15.50;;;20.10;99.90;;;;;;4978355;28;20451;-92
2021/06/21 00:47:21;;;;;;;16.50;15.20;;;20.10;99.90;;;;;;4995857;28;20296;-91
2021/06/21 00:49:47;;;;;;;15.57;14.50;;;;;;;;;;4997727;28;20177;-91
2021/06/21 00:52:21;;;;;;;16.70;15.50;;;20.20;99.90;;;;;;4998593;28;20501;-91
2021/06/21 00:54:48;;;;;;;18.00;16.57;;;;;;;;;;4993820;28;20427;-92
2021/06/21 00:57:14;;;;;;;17.63;16.10;;;;;;;;;;4995777;28;20419;-89
2021/06/21 00:59:40;;;;;;;18.40;17.00;;;;;;;;;;4996201;28;20456;-91
2021/06/21 01:02:06;;;;;;;16.93;15.53;;;20.20;99.90;;;;;;4997676;28;20421;-91
2021/06/21 01:04:32;;;;;;;19.07;17.57;;;;;;;;;;4996173;28;20478;-92
2021/06/21 01:06:58;;;;;;;18.00;16.60;;;;;;;;;;4998204;28;20500;-92
2021/06/21 01:09:25;;;;;;;19.60;17.90;;;;;;;;;;4995254;28;20404;-91
2021/06/21 01:12:02;;;;;;;19.17;17.47;;;20.20;99.90;;;;;;4997045;28;20463;-91
2021/06/21 01:14:44;;;;;;;21.63;19.73;;;20.10;99.90;;;;;;4994682;28;20424;-91
2021/06/21 01:17:34;;;;;;;21.93;20.20;;;20.90;99.90;;;;;;4997543;28;20425;-90
2021/06/21 01:20:33;;;;;;;20.53;19.00;;;20.10;99.90;;;;;;4980166;28;21053;-91
2021/06/21 01:30:15;;;;;;;21.40;19.70;;;19.60;99.90;;;;;;4982691;28;20405;-92
2021/06/21 01:32:44;;;;;;;23.30;21.60;;;19.90;99.90;;;;;;4973249;28;20971;-92
2021/06/21 01:35:23;;;;;;;22.43;20.70;;;20.00;99.90;;;;;;4997144;28;20453;-92
2021/06/21 01:37:53;;;;;;;22.43;20.77;;;20.00;99.90;;;;;;4995067;28;20489;-92
2021/06/21 01:40:21;;;;;;;23.97;22.00;;;19.30;99.90;;;;;;4994206;28;20532;-92
2021/06/21 01:42:54;;;;;;;22.93;21.13;;;19.50;99.90;;;;;;4994181;28;20417;-92
2021/06/21 01:45:22;;;;;;;21.67;20.07;;;19.20;99.90;;;;;;4976917;28;20803;-91
2021/06/21 01:47:51;;;;;;;22.67;20.80;;;19.20;99.90;;;;;;4980461;28;20413;-92
2021/06/21 01:50:22;;;;;;;20.87;19.20;;;19.90;99.90;;;;;;4977034;28;20405;-92
2021/06/21 01:53:04;;;;;;;24.23;22.17;;;19.50;99.90;;;;;;4973688;28;20417;-92
2021/06/21 01:55:31;;;;;;;23.97;21.60;;;19.80;99.90;;;;;;4993517;28;20413;-92
2021/06/21 01:57:58;;;;;;;25.13;23.23;;;19.90;99.90;;;;;;4978487;28;20414;-91
2021/06/21 02:00:24;;;;;;;24.57;22.50;;;20.00;99.90;;;;;;4977373;28;20460;-92
2021/06/21 02:02:52;;;;;;;25.20;23.30;;;19.60;99.90;;;;;;4977653;28;20512;-91
2021/06/21 02:05:18;;;;;;;25.63;23.33;;;20.10;99.90;;;;;;4977761;28;20406;-91
2021/06/21 02:07:46;;;;;;;26.80;24.50;;;19.70;99.90;;;;;;4992904;28;20422;-90
2021/06/21 02:10:12;;;;;;;25.47;23.17;;;19.90;99.90;;;;;;4995535;28;20200;-91
2021/06/21 02:12:39;;;;;;;26.03;23.73;;;;;;;;;;4997740;28;20501;-91
2021/06/21 02:15:06;;;;;;;27.10;24.60;;;19.70;99.90;;;;;;5004292;28;20504;-91
2021/06/21 02:17:32;;;;;;;26.20;23.97;;;;;;;;;;4987512;28;20416;-90
2021/06/21 02:20:03;;;;;;;26.13;23.57;;;19.70;99.90;;;;;;4986644;28;20457;-91
2021/06/21 02:22:30;;;;;;;23.70;21.90;;;19.60;99.90;;;;;;5012641;28;20460;-90
2021/06/21 02:24:58;;;;;;;26.77;24.47;;;19.40;99.90;;;;;;4999171;28;20487;-90
2021/06/21 02:27:24;;;;;;;28.03;25.70;;;;;;;;;;5001360;28;20397;-90
2021/06/21 02:29:52;;;;;;;28.90;26.50;;;19.10;99.90;;;;;;5015371;28;20413;-91
2021/06/21 02:32:22;;;;;;;28.93;26.23;;;19.00;99.90;;;;;;5014817;28;20411;-92
2021/06/21 02:34:51;;;;;;;28.20;25.73;;;19.10;99.90;;;;;;4993961;28;20412;-91
2021/06/21 02:37:19;;;;;;;26.83;24.63;;;;;;;;;;5010812;28;20995;-92
2021/06/21 02:39:45;;;;;;;29.27;27.03;;;19.10;99.90;;;;;;5009700;28;20455;-92
2021/06/21 02:42:11;;;;;;;25.80;23.83;;;;;;;;;;4993079;28;20435;-89
2021/06/21 02:44:37;;;;;;;26.60;24.30;;;19.00;99.90;;;;;;4992636;28;20440;-91
2021/06/21 02:47:04;;;;;;;24.50;22.60;;;19.00;99.90;;;;;;4996109;28;20424;-92
2021/06/21 02:49:30;;;;;;;26.77;24.17;;;;;;;;;;4996509;28;20428;-91
2021/06/21 02:52:07;;;;;;;27.50;24.93;;;19.10;99.90;;;;;;5012464;28;20428;-91
2021/06/21 02:54:52;;;;;;;24.10;22.30;;;19.00;99.90;;;;;;4995326;28;20443;-91
2021/06/21 02:57:34;;;;;;;23.23;21.43;;;19.10;99.90;;;;;;5018793;28;20432;-90
2021/06/21 03:00:00;;;;;;;18.50;17.20;;;;;;;;;;5013249;28;20468;-90
2021/06/21 03:02:29;;;;;;;18.77;17.47;;;19.00;99.90;;;;;;5011384;28;20424;-91
2021/06/21 03:04:56;;;;;;;15.80;14.60;;;19.10;99.90;;;;;;4993657;28;20455;-91
2021/06/21 03:07:24;;;;;;;15.23;13.97;;;19.10;99.90;;;;;;5008479;28;20459;-90
2021/06/21 03:09:50;;;;;;;19.27;17.87;;;;;;;;;;5008614;28;20488;-89
2021/06/21 03:12:28;;;;;;;16.47;15.40;;;19.10;99.90;;;;;;5014703;28;20416;-90
2021/06/21 03:14:55;;;;;;;16.60;15.30;;;;;;;;;;5018176;28;20603;-91
2021/06/21 03:17:22;;;;;;;17.30;16.13;;;19.00;99.90;;;;;;5015442;28;20482;-90
2021/06/21 03:19:50;;;;;;;17.70;16.37;;;19.00;99.90;;;;;;5012066;28;20507;-91
2021/06/21 03:22:19;;;;;;;21.10;19.33;;;18.90;99.90;;;;;;4994513;28;20447;-90
2021/06/21 03:24:49;;;;;;;20.30;18.87;;;18.80;99.90;;;;;;5007546;28;20468;-91
2021/06/21 03:27:15;;;;;;;18.00;16.60;;;18.80;99.90;;;;;;4991644;28;20439;-91
2021/06/21 03:29:41;;;;;;;18.70;17.50;;;;;;;;;;4991379;28;20851;-91
2021/06/21 03:32:32;;;;;;;16.37;15.30;;;18.80;99.90;;;;;;5008290;28;20177;-91
2021/06/21 03:35:01;;;;;;;15.70;14.50;;;18.70;99.90;;;;;;5005565;28;20455;-91
2021/06/21 03:37:28;;;;;;;12.50;11.80;;;;;;;;;;5010276;28;20492;-91
2021/06/21 03:39:54;;;;;;;13.33;12.43;;;;;;;;;;5009689;28;20484;-91
2021/06/21 03:42:20;;;;;;;13.60;12.60;;;18.70;99.90;;;;;;5009588;28;20417;-90
2021/06/21 03:44:48;;;;;;;14.27;13.37;;;18.70;99.90;;;;;;4995539;28;20493;-89
2021/06/21 03:47:18;;;;;;;14.23;13.23;;;18.50;99.90;;;;;;4992692;28;20593;-91
2021/06/21 03:49:47;;;;;;;14.10;13.23;;;18.60;99.90;;;;;;4987114;28;20827;-91
2021/06/21 03:52:15;;;;;;;12.77;12.07;;;18.50;99.90;;;;;;5004785;28;20412;-92
2021/06/21 03:54:41;;;;;;;12.73;11.97;;;18.50;99.90;;;;;;4992519;28;20938;-89
2021/06/21 03:57:07;;;;;;;13.17;12.27;;;;;;;;;;4988874;28;20444;-91
2021/06/21 03:59:33;;;;;;;15.70;14.60;;;18.50;99.90;;;;;;5008294;28;20428;-91
2021/06/21 04:02:02;;;;;;;13.63;12.73;;;18.30;99.90;;;;;;4991437;28;20516;-90
2021/06/21 04:04:28;;;;;;;14.03;12.73;;;;;;;;;;5007997;28;20236;-92
2021/06/21 04:06:55;;;;;;;12.20;11.53;;;18.60;99.90;;;;;;5005464;28;20425;-91
2021/06/21 04:09:22;;;;;;;13.10;12.30;;;18.50;99.90;;;;;;5006494;28;20471;-90
2021/06/21 04:11:49;;;;;;;12.70;12.00;;;;;;;;;;4990170;28;20433;-90
2021/06/21 04:14:18;;;;;;;12.13;11.47;;;18.50;99.90;;;;;;5006669;28;20389;-90
2021/06/21 04:16:45;;;;;;;13.53;12.53;;;18.30;99.90;;;;;;4987839;28;20429;-92
2021/06/21 04:19:17;;;;;;;12.20;11.43;;;18.40;99.90;;;;;;5006010;28;20428;-88
2021/06/21 04:21:43;;;;;;;13.50;12.60;;;;;;;;;;4989276;28;20548;-89
2021/06/21 04:24:09;;;;;;;12.17;11.47;;;;;;;;;;5006057;28;20472;-92
2021/06/21 04:26:40;;;;;;;10.83;10.30;;;19.00;99.90;;;;;;5005661;28;20435;-90
2021/06/21 04:29:06;;;;;;;11.97;11.27;;;18.60;99.90;;;;;;4991264;28;20416;-90
2021/06/21 04:31:32;;;;;;;13.10;12.20;;;;;;;;;;5012075;28;20425;-91
2021/06/21 04:34:00;;;;;;;11.57;10.80;;;18.70;99.90;;;;;;5010294;28;20170;-92
2021/06/21 04:36:26;;;;;;;11.27;10.53;;;18.70;99.90;;;;;;4992681;28;20440;-93
2021/06/21 04:38:58;;;;;;;13.17;12.37;;;;;;;;;;5007404;28;20416;-89
2021/06/21 04:41:30;;;;;;;13.27;12.37;;;18.80;99.90;;;;;;5006337;28;20578;-87
2021/06/21 04:43:56;;;;;;;14.50;13.50;;;;;;;;;;4989124;28;20451;-91
2021/06/21 04:46:23;;;;;;;13.13;12.17;;;;;;;;;;5000320;28;20432;-91
2021/06/21 04:48:50;;;;;;;14.20;13.17;;;;;;;;;;5005654;28;20484;-90
2021/06/21 04:51:20;;;;;;;14.67;13.47;;;18.90;99.90;;;;;;4658964;28;10000385;-91
2021/06/21 04:53:50;;;;;;;16.80;15.50;;;;;;;;;;5004192;28;20232;-91
2021/06/21 04:56:16;;;;;;;15.17;14.07;;;18.80;99.90;;;;;;5019545;28;20853;-92
2021/06/21 04:58:43;;;;;;;15.67;14.37;;;18.80;99.90;;;;;;5028720;28;20436;-91
2021/06/21 05:01:09;;;;;;;17.37;15.80;;;;;;;;;;5031776;28;21071;-92
2021/06/21 05:03:37;;;;;;;15.33;14.20;;;18.80;99.90;;;;;;5004929;28;20499;-91
2021/06/21 05:06:07;;;;;;;16.90;15.67;;;18.80;99.90;;;;;;5005077;28;20507;-91
2021/06/21 05:08:33;;;;;;;16.57;15.40;;;;;;;;;;5007309;28;20401;-90
2021/06/21 05:10:59;;;;;;;16.80;15.50;;;18.90;99.90;;;;;;5004290;28;20444;-92
2021/06/21 05:13:25;;;;;;;17.03;15.70;;;;;;;;;;5031355;28;20432;-90
2021/06/21 05:15:51;;;;;;;16.73;15.43;;;19.30;99.90;;;;;;5002424;28;20181;-92
2021/06/21 05:18:19;;;;;;;15.07;13.97;;;18.70;99.90;;;;;;4999150;28;20499;-90
2021/06/21 05:20:45;;;;;;;17.07;15.67;;;18.80;99.90;;;;;;5029163;28;20476;-91
2021/06/21 05:23:11;;;;;;;16.43;15.23;;;;;;;;;;5008552;28;20483;-89
2021/06/21 05:25:37;;;;;;;18.00;16.70;;;;;;;;;;5021567;28;20176;-91
2021/06/21 05:28:06;;;;;;;17.40;16.00;;;18.90;99.90;;;;;;5023303;28;20412;-89
2021/06/21 05:30:33;;;;;;;16.63;15.43;;;18.90;99.90;;;;;;5025566;28;20428;-90
2021/06/21 05:32:59;;;;;;;16.37;15.17;;;;;;;;;;5027903;28;20441;-90
2021/06/21 05:35:31;;;;;;;18.57;17.00;;;19.70;99.90;;;;;;5024015;28;20203;-90
2021/06/21 05:37:57;;;;;;;17.27;16.03;;;;;;;;;;5025280;28;20921;-91
2021/06/21 05:40:23;;;;;;;18.67;17.37;;;;;;;;;;5026018;28;20455;-91
2021/06/21 05:42:49;;;;;;;18.23;16.43;;;19.70;99.90;;;;;;5026106;28;20434;-90
2021/06/21 05:45:17;;;;;;;20.00;18.40;;;19.10;99.90;;;;;;5026650;28;20537;-90
2021/06/21 05:47:43;;;;;;;19.00;17.60;;;;;;;;;;5041390;28;20244;-89
2021/06/21 05:50:10;;;;;;;18.70;17.20;;;19.10;99.90;;;;;;5021410;28;20411;-91
2021/06/21 05:52:38;;;;;;;22.40;20.40;;;19.10;99.90;;;;;;5022473;28;20752;-89
2021/06/21 05:55:06;;;;;;;20.37;18.27;;;19.10;99.90;;;;;;5021766;28;20399;-90
2021/06/21 05:57:32;;;;;;;21.80;20.10;;;;;;;;;;5006292;28;20428;-91
2021/06/21 05:59:58;;;;;;;21.80;20.00;;;;;;;;;;5020150;28;20458;-91
2021/06/21 06:02:25;;;;;;;21.67;19.80;;;18.60;99.90;;;;;;5010537;28;20459;-88
2021/06/21 06:04:52;;;;;;;19.83;18.33;;;;;;;;;;5001888;28;20778;-90
2021/06/21 06:07:18;;;;;;;24.57;22.27;;;;;;;;;;5003036;28;20416;-91
2021/06/21 06:09:44;;;;;;;24.97;22.87;;;19.80;99.90;;;;;;5001720;28;20405;-90
2021/06/21 06:12:10;;;;;;;23.27;21.27;;;19.10;99.90;;;;;;5003901;28;20495;-90
2021/06/21 06:14:36;;;;;;;24.47;22.27;;;19.10;99.90;;;;;;5002399;28;20959;-91
2021/06/21 06:17:02;;;;;;;24.50;22.40;;;;;;;;;;4982256;28;20453;-90
2021/06/21 06:19:28;;;;;;;23.47;21.47;;;19.30;99.90;;;;;;4999456;28;20498;-89
2021/06/21 06:21:54;;;;;;;23.83;21.83;;;;;;;;;;4996966;28;20497;-90
2021/06/21 06:24:20;;;;;;;24.67;22.60;;;;;;;;;;5016849;28;20251;-91
2021/06/21 06:26:46;;;;;;;26.57;24.20;;;19.50;99.90;;;;;;5020096;28;20416;-91
2021/06/21 06:29:14;;;;;;;29.63;23.27;;;19.50;99.90;;;;;;4670217;28;10000365;-91
2021/06/21 06:31:44;;;;;;;23.20;21.10;;;;;;;;;;5001572;28;20172;-93
2021/06/21 06:34:11;;;;;;;22.93;21.13;;;19.70;99.90;;;;;;5018681;28;20475;-91
2021/06/21 06:36:36;;;;;;;21.37;19.53;;;19.80;99.90;;;;;;4999004;28;20448;-89
2021/06/21 06:39:03;;;;;;;23.37;21.30;;;;;;;;;;4999524;28;20441;-91
2021/06/21 06:41:32;;;;;;;21.97;20.17;;;20.10;99.90;;;;;;5017258;28;20212;-89
2021/06/21 06:43:58;;;;;;;19.53;17.97;;;;;;;;;;5030083;28;20411;-91
2021/06/21 06:46:24;;;;;;;19.00;17.47;;;19.80;99.90;;;;;;5034428;28;20512;-91
2021/06/21 06:48:50;;;;;;;19.03;17.23;;;;;;;;;;5028389;28;20462;-89
2021/06/21 06:51:17;;;;;;;17.13;15.90;;;20.60;99.90;;;;;;5021182;28;20172;-90
2021/06/21 06:53:48;;;;;;;16.80;15.60;;;20.60;99.90;;;;;;5019204;28;20506;-90
2021/06/21 06:58:59;;;;;;;14.47;13.57;;;21.20;99.90;;;;;;5019974;28;20427;-91
2021/06/21 07:01:25;;;;;;;13.83;12.70;;;21.50;93.50;;;;;;4988784;28;20467;-92
2021/06/21 07:03:51;;;;;;;13.73;12.83;;;;;;;;;;5004508;28;20166;-92
2021/06/21 07:06:20;;;;;;;13.00;12.00;;;21.40;93.00;;;;;;5003239;28;20453;-91
2021/06/21 07:08:47;;;;;;;10.97;9.87;;;;;;;;;;5006326;28;20954;-90
2021/06/21 07:11:13;;;;;;;8.90;8.10;;;;;;;;;;5007961;28;20416;-91
2021/06/21 07:13:42;;;;;;;9.63;8.83;;;;;;;;;;5011688;28;20420;-91
2021/06/21 07:16:28;;;;;;;11.43;10.10;;;22.70;82.80;;;;;;5012951;28;20428;-91
2021/06/21 07:19:00;;;;;;;12.53;11.73;;;25.80;87.40;;;;;;4994993;28;20462;-92
2021/06/21 07:21:31;;;;;;;14.23;13.23;;;22.30;87.50;;;;;;5008145;28;20452;-91
2021/06/21 07:24:00;;;;;;;18.27;16.77;;;21.80;91.40;;;;;;5011402;28;20467;-91
2021/06/21 07:26:29;;;;;;;24.27;20.90;;;21.40;92.90;;;;;;5008639;28;20417;-89
2021/06/21 07:28:55;;;;;;;24.87;22.70;;;;;;;;;;4990781;28;20432;-89
2021/06/21 07:31:24;;;;;;;27.97;25.63;;;19.30;91.50;;;;;;5006857;28;20421;-90
2021/06/21 07:33:53;;;;;;;30.83;27.70;;;21.00;94.10;;;;;;5006928;28;20426;-91
2021/06/21 07:36:22;;;;;;;33.30;30.57;;;;;;;;;;5006466;28;20452;-89
2021/06/21 07:38:49;;;;;;;38.47;32.90;;;21.10;94.70;;;;;;5002425;28;20417;-90
2021/06/21 07:41:23;;;;;;;33.40;30.43;;;20.50;95.60;;;;;;4988395;28;20655;-91
2021/06/21 07:43:52;;;;;;;35.37;32.07;;;;;;;;;;4989757;28;20177;-89
2021/06/21 07:46:27;;;;;;;36.53;33.13;;;20.50;94.90;;;;;;4998382;28;20421;-91
2021/06/21 07:49:27;;;;;;;;;;;;;;;;;;;;;
2021/06/21 07:51:59;;;;;;;37.00;33.70;;;;;;;;;;4991028;28;20463;-91
2021/06/21 07:54:26;;;;;;;39.57;35.60;;;19.70;96.40;;;;;;5009516;28;20435;-88
2021/06/21 07:57:10;;;;;;;38.20;34.60;;;20.40;97.10;;;;;;5007012;28;20492;-90
2021/06/21 07:59:42;;;;;;;37.67;33.77;;;19.80;97.20;;;;;;4989004;28;20731;-90
2021/06/21 08:02:08;;;;;;;37.33;34.10;;;21.80;96.20;;;;;;4991230;28;20452;-89
2021/06/21 08:04:50;;;;;;;36.47;33.10;;;20.30;96.20;;;;;;5021397;28;20434;-91
2021/06/21 08:07:16;;;;;;;36.80;33.60;;;;;;;;;;5007815;28;20452;-88
2021/06/21 08:09:42;;;;;;;39.60;35.80;;;;;;;;;;5003298;28;20931;-89
2021/06/21 08:12:08;;;;;;;38.27;34.70;;;20.40;95.00;;;;;;5005132;28;20885;-89
2021/06/21 08:14:34;;;;;;;38.27;34.67;;;20.50;99.90;;;;;;4991023;28;20751;-90
2021/06/21 08:17:02;;;;;;;39.23;35.77;;;;;;;;;;4987757;28;20776;-88
2021/06/21 08:19:28;;;;;;;37.70;34.13;;;20.60;99.90;;;;;;5006031;28;20484;-89
2021/06/21 08:22:01;;;;;;;37.00;33.80;;;20.50;96.60;;;;;;5007230;28;20468;-90
2021/06/21 08:24:32;;;;;;;36.80;33.13;;;20.80;94.70;;;;;;5017091;28;20239;-91
2021/06/21 08:27:01;;;;;;;36.70;33.30;;;;;;;;;;5005948;28;20453;-88
2021/06/21 08:29:27;;;;;;;39.77;36.10;;;;;;;;;;4985113;28;20420;-91
2021/06/21 08:31:54;;;;;;;37.27;33.67;;;20.90;92.20;;;;;;4986818;28;20428;-88
2021/06/21 08:34:23;;;;;;;38.07;34.70;;;21.10;91.60;;;;;;4983526;28;20802;-90
2021/06/21 08:36:49;;;;;;;33.77;30.67;;;;;;;;;;4984915;28;20431;-90
2021/06/21 08:39:15;;;;;;;38.23;34.73;;;;;;;;;;4997368;28;20939;-90
2021/06/21 08:41:41;;;;;;;37.70;33.90;;;21.90;87.40;;;;;;4965267;29;20474;-91
2021/06/21 08:44:10;;;;;;;39.70;35.90;;;21.50;90.40;;;;;;4983664;28;20430;-90
2021/06/21 08:46:37;;;;;;;40.67;36.77;;;;;;;;;;4984472;28;20226;-88
2021/06/21 08:49:04;;;;;;;37.47;33.93;;;21.30;91.70;;;;;;4983802;28;20418;-91
2021/06/21 08:51:36;;;;;;;37.63;33.87;;;21.10;99.90;;;;;;4955645;29;20445;-88
2021/06/21 08:54:02;;;;;;;38.20;34.23;;;;;;;;;;4954188;29;20953;-90
2021/06/21 08:56:37;;;;;;;37.30;33.50;;;;;;;;;;4987724;28;20421;-88
2021/06/21 08:59:08;;;;;;;37.30;33.33;;;20.20;89.90;;;;;;4988587;28;20445;-91
2021/06/21 09:01:53;;;;;;;35.13;31.43;;;20.50;90.50;;;;;;4952417;29;20478;-91
2021/06/21 09:04:22;;;;;;;34.53;31.27;;;20.40;90.70;;;;;;4990402;28;20433;-89
2021/06/21 09:06:48;;;;;;;33.80;30.60;;;;;;;;;;4988626;28;20421;-89
2021/06/21 09:09:14;;;;;;;33.83;30.30;;;;;;;;;;4989085;28;20442;-91
2021/06/21 09:12:07;;;;;;;30.10;27.30;;;20.20;89.30;;;;;;4990290;28;20414;-90
2021/06/21 09:14:43;;;;;;;31.10;28.07;;;21.70;90.00;;;;;;4975111;28;20418;-91
2021/06/21 09:17:10;;;;;;;31.93;28.53;;;20.20;88.80;;;;;;4974820;29;20420;-90
2021/06/21 09:20:07;;;;;;;30.63;27.60;;;20.20;89.00;;;;;;4956777;29;20414;-91
2021/06/21 09:22:53;;;;;;;29.27;26.27;;;20.60;89.00;;;;;;4974583;29;20418;-91
2021/06/21 09:25:29;;;;;;;24.73;22.13;;;19.90;89.00;;;;;;5008747;28;20460;-89
2021/06/21 09:28:05;;;;;;;26.03;23.50;;;21.50;90.00;;;;;;5012571;28;20436;-91
2021/06/21 09:30:56;;;;;;;26.73;23.73;;;19.00;93.50;;;;;;5013022;28;20420;-90
2021/06/21 09:33:29;;;;;;;26.47;23.67;;;19.80;94.20;;;;;;5015105;28;20467;-90
2021/06/21 09:35:55;;;;;;;25.33;22.83;;;;;;;;;;5014242;28;20453;-88
2021/06/21 09:38:21;;;;;;;30.53;25.87;;;19.80;91.80;;;;;;5016666;28;20400;-89
2021/06/21 09:40:55;;;;;;;29.17;26.17;;;19.80;94.70;;;;;;5029425;28;20467;-90
2021/06/21 09:43:34;;;;;;;29.07;26.07;;;19.80;92.90;;;;;;5012969;28;20412;-91
2021/06/21 09:46:20;;;;;;;26.40;22.33;;;19.60;94.30;;;;;;5009030;28;20467;-91
2021/06/21 09:48:51;;;;;;;33.13;29.37;;;19.50;96.40;;;;;;5009867;28;20428;-89
2021/06/21 09:51:50;;;;;;;35.87;31.80;;;19.30;97.00;;;;;;5008717;28;20439;-91
2021/06/21 09:54:24;;;;;;;42.17;34.60;;;19.20;95.90;;;;;;5006325;28;20868;-89
2021/06/21 09:56:54;;;;;;;47.23;37.07;;;19.10;94.10;;;;;;5008802;28;20433;-90
2021/06/21 09:59:29;;;;;;;48.87;39.00;;;18.90;97.30;;;;;;5008466;28;20942;-90
2021/06/21 10:02:11;;;;;;;54.90;41.13;;;19.30;95.90;;;;;;5009705;28;20550;-89
2021/06/21 10:04:39;;;;;;;52.80;41.50;;;18.90;96.40;;;;;;4992884;28;20624;-91
2021/06/21 10:07:24;;;;;;;52.20;41.67;;;18.60;98.50;;;;;;5008598;28;20405;-92
2021/06/21 10:09:51;;;;;;;65.27;46.27;;;18.70;98.50;;;;;;5013053;28;20384;-90
2021/06/21 10:12:20;;;;;;;57.00;44.27;;;18.60;98.60;;;;;;4974057;28;20441;-91
2021/06/21 10:14:50;;;;;;;57.60;45.27;;;18.70;99.00;;;;;;5010114;28;20447;-91
2021/06/21 10:17:16;;;;;;;56.77;42.73;;;18.60;96.10;;;;;;5005448;28;20410;-92
2021/06/21 10:19:43;;;;;;;57.80;44.63;;;;;;;;;;4989551;28;20472;-91
2021/06/21 10:22:12;;;;;;;60.20;46.67;;;18.40;99.90;;;;;;4989486;28;20429;-90
2021/06/21 10:24:41;;;;;;;58.10;43.03;;;;;;;;;;5002933;28;20472;-92
2021/06/21 10:27:08;;;;;;;55.47;42.00;;;18.40;99.80;;;;;;4989878;28;20414;-93
2021/06/21 10:29:37;;;;;;;49.47;37.30;;;18.30;99.90;;;;;;5008821;28;20481;-92
2021/06/21 10:32:07;;;;;;;45.47;36.20;;;18.30;99.90;;;;;;4989315;28;20541;-90
2021/06/21 10:34:34;;;;;;;42.10;32.70;;;;;;;;;;4983666;28;20429;-91
2021/06/21 10:37:00;;;;;;;20.57;18.47;;;;;;;;;;5003505;28;20410;-90
2021/06/21 10:39:27;;;;;;;19.23;17.30;;;18.40;99.90;;;;;;5009761;28;20418;-88
2021/06/21 10:42:05;;;;;;;15.90;14.40;;;18.30;99.90;;;;;;4987300;28;20504;-88
2021/06/21 10:44:39;;;;;;;11.47;10.57;;;18.20;99.90;;;;;;4984489;28;20412;-91
2021/06/21 10:47:31;;;;;;;15.67;14.30;;;18.40;99.90;;;;;;4982419;28;20436;-88
2021/06/21 10:50:17;;;;;;;14.93;13.83;;;18.60;99.90;;;;;;4981784;28;20773;-91
2021/06/21 10:52:48;;;;;;;15.33;14.03;;;18.80;99.90;;;;;;4980733;28;20420;-91
2021/06/21 10:55:40;;;;;;;16.20;14.90;;;18.40;99.40;;;;;;4996530;28;20924;-88
2021/06/21 10:58:21;;;;;;;17.00;15.30;;;18.30;99.90;;;;;;4995491;28;20468;-91
2021/06/21 11:00:51;;;;;;;17.83;16.33;;;18.10;99.50;;;;;;4996179;28;20469;-90
2021/06/21 11:03:26;;;;;;;13.93;12.73;;;18.10;99.90;;;;;;4984682;28;20424;-90
2021/06/21 11:05:58;;;;;;;13.77;12.77;;;18.10;99.90;;;;;;4990572;28;20443;-89
2021/06/21 11:08:57;;;;;;;9.90;9.20;;;17.90;99.90;;;;;;4990884;28;20888;-90
2021/06/21 11:11:39;;;;;;;6.20;5.90;;;17.90;99.90;;;;;;5018371;28;20426;-92
2021/06/21 11:14:21;;;;;;;4.60;4.40;;;17.80;99.90;;;;;;5021119;28;20528;-91
2021/06/21 11:17:17;;;;;;;3.50;3.50;;;17.60;99.90;;;;;;5007717;28;20402;-92
2021/06/21 11:19:45;;;;;;;3.50;3.50;;;17.60;99.90;;;;;;5003886;28;20422;-89
2021/06/21 11:22:38;;;;;;;2.77;2.67;;;17.60;99.90;;;;;;5019842;28;20429;-94
2021/06/21 11:25:23;;;;;;;2.20;2.20;;;17.60;99.90;;;;;;5021836;28;20468;-92
2021/06/21 11:27:51;;;;;;;1.70;1.70;;;;;;;;;;5005951;28;20444;-90
2021/06/21 11:30:30;;;;;;;1.47;1.47;;;17.50;99.90;;;;;;5024452;28;20422;-90
2021/06/21 11:33:14;;;;;;;1.60;1.60;;;17.40;99.90;;;;;;4989966;28;20421;-93
2021/06/21 11:36:00;;;;;;;1.80;1.80;;;17.80;99.90;;;;;;5022712;28;20472;-93
2021/06/21 11:38:40;;;;;;;2.47;2.47;;;17.50;99.90;;;;;;5019928;28;20441;-92
2021/06/21 11:41:35;;;;;;;1.60;1.60;;;17.30;99.90;;;;;;4988358;28;20504;-92
2021/06/21 11:44:06;;;;;;;1.80;1.80;;;17.50;99.90;;;;;;4986114;28;20402;-93
2021/06/21 11:46:50;;;;;;;1.63;1.63;;;17.90;99.90;;;;;;5001969;28;20488;-91
2021/06/21 11:49:19;;;;;;;1.70;1.70;;;17.00;99.90;;;;;;5003533;28;20425;-92
2021/06/21 11:52:07;;;;;;;1.60;1.60;;;;;;;;;;5010535;28;20468;-92
2021/06/21 11:54:48;;;;;;;1.20;1.20;;;17.70;99.90;;;;;;4987025;28;20417;-92
2021/06/21 11:57:15;;;;;;;1.70;1.70;;;;;;;;;;4985013;28;20444;-93
2021/06/21 12:00:05;;;;;;;1.50;1.50;;;17.70;99.90;;;;;;4985047;28;20413;-92
2021/06/21 12:02:32;;;;;;;2.00;2.00;;;17.80;99.90;;;;;;4984923;28;20421;-92
2021/06/21 12:05:12;;;;;;;2.17;2.17;;;18.10;99.90;;;;;;4982029;28;20455;-92
2021/06/21 12:07:41;;;;;;;2.50;1.80;;;18.00;99.90;;;;;;4982228;28;20272;-91
2021/06/21 12:10:13;;;;;;;1.30;1.30;;;18.00;99.90;;;;;;4982563;28;20505;-92
2021/06/21 12:12:40;;;;;;;1.97;1.97;;;18.20;99.90;;;;;;4985015;28;20440;-92
2021/06/21 12:15:12;;;;;;;1.63;1.63;;;18.40;99.90;;;;;;4983420;28;20448;-92
2021/06/21 12:18:04;;;;;;;1.60;1.60;;;18.40;99.90;;;;;;4985886;28;20446;-92
2021/06/21 12:20:33;;;;;;;1.57;1.53;;;18.50;99.90;;;;;;4985942;28;20862;-92
2021/06/21 12:23:08;;;;;;;1.53;1.30;;;18.40;99.90;;;;;;4988580;28;20437;-92
2021/06/21 12:25:36;;;;;;;1.63;1.63;;;18.30;98.40;;;;;;5023014;28;20461;-91
2021/06/21 12:28:12;;;;;;;2.03;2.03;;;18.30;99.90;;;;;;5025321;28;20427;-93
2021/06/21 12:30:43;;;;;;;1.63;1.63;;;18.30;97.90;;;;;;5021887;28;20416;-93
2021/06/21 12:33:29;;;;;;;3.20;3.10;;;18.90;99.70;;;;;;5021844;28;20464;-91
2021/06/21 12:36:25;;;;;;;2.07;1.97;;;18.60;99.60;;;;;;5006442;28;20435;-90
2021/06/21 12:38:53;;;;;;;2.20;1.63;;;18.70;97.90;;;;;;5004006;28;20511;-92
2021/06/21 12:42:12;;;;;;;3.63;3.63;;;18.60;95.60;;;;;;5183099;27;20492;-94
2021/06/21 12:45:10;;;;;;;2.83;2.63;;;18.60;81.20;;;;;;5162702;27;20413;-94
2021/06/21 12:47:58;;;;;;;2.40;2.30;;;18.50;81.60;;;;;;5147321;28;20470;-93
2021/06/21 12:50:26;;;;;;;1.70;1.70;;;18.60;76.00;;;;;;5154127;27;20414;-93
2021/06/21 12:52:53;;;;;;;2.30;2.30;;;18.80;78.80;;;;;;5162204;27;20420;-93
2021/06/21 12:55:36;;;;;;;2.20;2.10;;;21.90;86.40;;;;;;5160741;27;20424;-91
2021/06/21 12:58:09;;;;;;;1.40;1.40;;;18.90;73.10;;;;;;5159372;27;20423;-92
2021/06/21 13:00:43;;;;;;;2.10;2.10;;;19.00;77.40;;;;;;5161430;27;20465;-92
2021/06/21 13:03:25;;;;;;;2.00;1.63;;;21.70;83.10;;;;;;4798217;27;9999916;-93
2021/06/21 13:05:58;;;;;;;2.17;2.17;;;19.50;76.70;;;;;;5161316;27;20254;-92
2021/06/21 13:08:39;;;;;;;4.70;4.67;;;21.40;77.90;;;;;;5162708;27;20425;-92
2021/06/21 13:11:13;;;;;;;2.00;2.00;;;18.70;74.70;;;;;;5161400;27;20465;-91
2021/06/21 13:13:46;;;;;;;2.50;2.50;;;18.60;93.80;;;;;;5159547;27;20406;-94
2021/06/21 13:16:24;;;;;;;3.57;3.50;;;18.60;74.20;;;;;;5164968;27;20433;-93
2021/06/21 13:18:52;;;;;;;2.80;2.70;;;23.30;84.80;;;;;;5157689;27;20401;-92
2021/06/21 13:21:36;;;;;;;3.03;2.93;;;18.80;74.20;;;;;;5155006;27;20461;-93
2021/06/21 13:24:05;;;;;;;3.23;3.20;;;18.80;74.10;;;;;;5158677;27;20425;-93
2021/06/21 13:26:54;;;;;;;3.07;2.87;;;18.80;86.80;;;;;;5158754;27;20484;-92
2021/06/21 13:29:50;;;;;;;3.20;3.10;;;21.30;78.00;;;;;;5160332;27;20402;-93